| time (UTC) | temp F | wind direction | speed MPH | gust MPH | rain 1hr in | rain 24hr in | rain mn in | humidity % | barometer mb |
| 20260507134633 | 63 | 180 | 8.0 | 16.0 | 0.00 | 0.00 | 0.00 | 70 | 1005.4 |
| 20260507134122 | 62 | 158 | 8.0 | 16.0 | 0.00 | 0.00 | 0.00 | 70 | 1005.2 |
| 20260507133612 | 62 | 203 | 5.0 | 16.0 | 0.00 | 0.00 | 0.00 | 71 | 1005.3 |
| 20260507133102 | 62 | 158 | 5.0 | 21.0 | 0.00 | 0.00 | 0.00 | 70 | 1005.5 |
| 20260507132551 | 62 | 158 | 8.0 | 21.0 | 0.00 | 0.00 | 0.00 | 71 | 1005.2 |
| 20260507132043 | 62 | 203 | 9.0 | 20.0 | 0.00 | 0.00 | 0.00 | 72 | 1005.3 |
| 20260507131534 | 62 | 203 | 9.0 | 20.0 | 0.00 | 0.00 | 0.00 | 70 | 1005.3 |
| 20260507131022 | 62 | 158 | 7.0 | 20.0 | 0.00 | 0.00 | 0.00 | 72 | 1005.1 |
| 20260507130534 | 62 | 203 | 4.0 | 16.0 | 0.00 | 0.00 | 0.00 | 74 | 1004.9 |
| 20260507125458 | 63 | 180 | 8.0 | 20.0 | 0.00 | 0.00 | 0.00 | 75 | 1004.7 |
| 20260507124945 | 64 | 203 | 10.0 | 23.0 | 0.00 | 0.00 | 0.00 | 72 | 1004.3 |
| 20260507124433 | 64 | 180 | 8.0 | 23.0 | 0.00 | 0.00 | 0.00 | 73 | 1003.9 |
| 20260507123920 | 64 | 180 | 10.0 | 21.0 | 0.00 | 0.00 | 0.00 | 72 | 1004.1 |
| 20260507123413 | 64 | 180 | 7.0 | 18.0 | 0.00 | 0.00 | 0.00 | 74 | 1004.3 |
| 20260507122901 | 64 | 158 | 8.0 | 21.0 | 0.00 | 0.00 | 0.00 | 74 | 1003.8 |
| 20260507122350 | 65 | 180 | 10.0 | 21.0 | 0.00 | 0.00 | 0.00 | 75 | 1003.7 |
| 20260507121840 | 65 | 135 | 8.0 | 15.0 | 0.00 | 0.00 | 0.00 | 79 | 1003.7 |
| 20260507121331 | 66 | 158 | 6.0 | 16.0 | 0.00 | 0.00 | 0.00 | 77 | 1003.4 |
| 20260507120820 | 65 | 225 | 10.0 | 16.0 | 0.00 | 0.00 | 0.00 | 76 | 1003.1 |
| 20260507120310 | 65 | 203 | 4.0 | 7.0 | 0.00 | 0.00 | 0.00 | 77 | 1002.8 |
| 20260507115800 | 65 | 180 | 1.0 | 9.0 | 0.00 | 0.00 | 0.00 | 76 | 1002.8 |
| 20260507115250 | 66 | 203 | 3.0 | 9.0 | 0.00 | 0.00 | 0.00 | 75 | 1002.4 |
| 20260507114229 | 67 | 135 | 6.0 | 15.0 | 0.00 | 0.00 | 0.00 | 75 | 1002.2 |
| 20260507113720 | 67 | 225 | 7.0 | 15.0 | 0.00 | 0.00 | 0.00 | 79 | 1002.0 |
| 20260507112659 | 67 | 158 | 3.0 | 8.0 | 0.00 | 0.00 | 0.00 | 81 | 1001.0 |
| 20260507112149 | 67 | 158 | 2.0 | 7.0 | 0.00 | 0.00 | 0.00 | 82 | 1000.5 |
| 20260507111638 | 66 | 158 | 1.0 | 4.0 | 0.00 | 0.00 | 0.00 | 88 | 1000.1 |
| 20260507111130 | 66 | 135 | 0.0 | 4.0 | 0.00 | 0.00 | 0.00 | 88 | 999.9 |
| 20260507110619 | 66 | 180 | 1.0 | 7.0 | 0.00 | 0.00 | 0.00 | 87 | 999.8 |
| 20260507110108 | 67 | 135 | 2.0 | 7.0 | 0.00 | 0.00 | 0.00 | 86 | 999.6 |
| 20260507105559 | 67 | 180 | 1.0 | 6.0 | 0.00 | 0.00 | 0.00 | 88 | 999.5 |
| 20260507105048 | 67 | 158 | 2.0 | 7.0 | 0.00 | 0.00 | 0.00 | 87 | 999.2 |
| 20260507104539 | 68 | 158 | 1.0 | 8.0 | 0.00 | 0.00 | 0.00 | 90 | 999.0 |
| 20260507104030 | 68 | 113 | 4.0 | 8.0 | 0.00 | 0.00 | 0.00 | 89 | 999.0 |
| 20260507103519 | 68 | 158 | 2.0 | 7.0 | 0.00 | 0.00 | 0.00 | 93 | 998.5 |
| 20260507103008 | 67 | 135 | 2.0 | 4.0 | 0.00 | 0.00 | 0.00 | 96 | 998.6 |
| 20260507102458 | 67 | 158 | 2.0 | 4.0 | 0.00 | 0.00 | 0.00 | 96 | 998.0 |
| 20260507101438 | 66 | 135 | 0.0 | 0.0 | 0.00 | 0.00 | 0.00 | 96 | 997.3 |
| 20260507100929 | 67 | 135 | 0.0 | 2.0 | 0.00 | 0.00 | 0.00 | 96 | 997.2 |
| 20260507100418 | 67 | 135 | 0.0 | 2.0 | 0.00 | 0.00 | 0.00 | 95 | 997.1 |
| 20260507095907 | 67 | 135 | 0.0 | 4.0 | 0.00 | 0.00 | 0.00 | 95 | 997.2 |
| 20260507095357 | 67 | 135 | 0.0 | 4.0 | 0.00 | 0.00 | 0.00 | 94 | 996.9 |
| 20260507094847 | 67 | 180 | 1.0 | 6.0 | 0.00 | 0.00 | 0.00 | 94 | 996.9 |
| 20260507094347 | 67 | 158 | 0.0 | 8.0 | 0.00 | 0.00 | 0.00 | 95 | 996.8 |
| 20260507093827 | 67 | 158 | 1.0 | 8.0 | 0.00 | 0.00 | 0.00 | 96 | 996.5 |
| 20260507093317 | 67 | 158 | 1.0 | 6.0 | 0.00 | 0.00 | 0.00 | 96 | 996.3 |
| 20260507092806 | 66 | 158 | 2.0 | 6.0 | 0.00 | 0.00 | 0.00 | 97 | 996.4 |
| 20260507092257 | 63 | 158 | 0.0 | 0.0 | 0.00 | 0.00 | 0.00 | 99 | 995.9 |
| 20260507090726 | 60 | 158 | 0.0 | 0.0 | 0.00 | 0.00 | 0.00 | 98 | 995.8 |
| 20260507085706 | 58 | 135 | 0.0 | 0.0 | 0.00 | 0.00 | 0.00 | 99 | 995.7 |
| 20260507085155 | 58 | 135 | 0.0 | 0.0 | 0.00 | 0.00 | 0.00 | 98 | 995.6 |
| 20260507084646 | 58 | 68 | 0.0 | 0.0 | 0.00 | 0.00 | 0.00 | 98 | 995.8 |
| 20260507084135 | 58 | 113 | 0.0 | 0.0 | 0.00 | 0.00 | 0.00 | 99 | 995.6 |
| 20260507083625 | 59 | 113 | 0.0 | 0.0 | 0.00 | 0.00 | 0.00 | 99 | 995.7 |
| 20260507083116 | 59 | 135 | 0.0 | 2.0 | 0.00 | 0.00 | 0.00 | 99 | 995.4 |
| 20260507082606 | 59 | 90 | 0.0 | 2.0 | 0.00 | 0.00 | 0.00 | 99 | 995.4 |
| 20260507082056 | 58 | 135 | 0.0 | 2.0 | 0.00 | 0.00 | 0.00 | 99 | 995.2 |
| 20260507081545 | 59 | 225 | 0.0 | 2.0 | 0.00 | 0.00 | 0.00 | 98 | 995.4 |
| 20260507081035 | 59 | 293 | 0.0 | 2.0 | 0.00 | 0.00 | 0.00 | 98 | 995.2 |
| 20260507080525 | 59 | 293 | 0.0 | 2.0 | 0.00 | 0.00 | 0.00 | 98 | 995.2 |
| 20260507080015 | 59 | 270 | 0.0 | 2.0 | 0.00 | 0.00 | 0.00 | 99 | 995.3 |
| 20260507075505 | 59 | 135 | 0.0 | 2.0 | 0.00 | 0.00 | 0.00 | 99 | 995.1 |
| 20260507074954 | 58 | 338 | 0.0 | 0.0 | 0.00 | 0.00 | 0.00 | 99 | 994.8 |
| 20260507074446 | 59 | 293 | 0.0 | 0.0 | 0.00 | 0.00 | 0.00 | 99 | 994.8 |
| 20260507073935 | 59 | 158 | 0.0 | 0.0 | 0.00 | 0.00 | 0.00 | 99 | 994.9 |
| 20260507072914 | 59 | 135 | 0.0 | 0.0 | 0.00 | 0.00 | 0.00 | 99 | 994.8 |
| 20260507071854 | 59 | 158 | 0.0 | 0.0 | 0.00 | 0.00 | 0.00 | 99 | 995.1 |
| 20260507071343 | 60 | 158 | 0.0 | 0.0 | 0.00 | 0.00 | 0.00 | 99 | 994.9 |
| 20260507070833 | 60 | 135 | 0.0 | 0.0 | 0.00 | 0.00 | 0.00 | 99 | 995.1 |
| 20260507070324 | 60 | 113 | 0.0 | 0.0 | 0.00 | 0.00 | 0.00 | 99 | 994.8 |
| 20260507065814 | 60 | 113 | 0.0 | 0.0 | 0.00 | 0.00 | 0.00 | 99 | 994.9 |
| 20260507065306 | 60 | 225 | 0.0 | 0.0 | 0.00 | 0.00 | 0.00 | 99 | 995.0 |
| 20260507064752 | 61 | 225 | 0.0 | 0.0 | 0.00 | 0.00 | 0.00 | 99 | 995.0 |
| 20260507064243 | 61 | 225 | 0.0 | 0.0 | 0.00 | 0.00 | 0.00 | 99 | 995.1 |
| 20260507063733 | 61 | 203 | 0.0 | 0.0 | 0.00 | 0.00 | 0.00 | 98 | 995.2 |
| 20260507063222 | 61 | 203 | 0.0 | 0.0 | 0.00 | 0.00 | 0.00 | 98 | 995.3 |
| 20260507062712 | 61 | 203 | 0.0 | 0.0 | 0.00 | 0.00 | 0.00 | 97 | 995.4 |
| 20260507062203 | 61 | 225 | 0.0 | 0.0 | 0.00 | 0.00 | 0.00 | 97 | 995.3 |
| 20260507061144 | 62 | 158 | 0.0 | 0.0 | 0.00 | 0.00 | 0.00 | 98 | 995.3 |
| 20260507060632 | 61 | 203 | 0.0 | 0.0 | 0.00 | 0.00 | 0.00 | 98 | 995.5 |
| 20260507060123 | 61 | 203 | 0.0 | 0.0 | 0.00 | 0.00 | 0.00 | 97 | 995.6 |
| 20260507054032 | 61 | 293 | 0.0 | 0.0 | 0.00 | 0.00 | 0.00 | 98 | 995.7 |
| 20260507052502 | 61 | 135 | 0.0 | 0.0 | 0.00 | 0.00 | 0.00 | 98 | 995.5 |
| 20260507051441 | 62 | 135 | 0.0 | 0.0 | 0.00 | 0.00 | 0.00 | 97 | 995.5 |
| 20260507050931 | 62 | 135 | 0.0 | 0.0 | 0.00 | 0.00 | 0.00 | 97 | 995.7 |
| 20260507050422 | 62 | 135 | 0.0 | 0.0 | 0.00 | 0.00 | 0.00 | 96 | 995.6 |
| 20260507045911 | 62 | 158 | 0.0 | 2.0 | 0.00 | 0.00 | 0.00 | 96 | 995.5 |
| 20260507045401 | 62 | 158 | 0.0 | 2.0 | 0.00 | 0.00 | 0.00 | 97 | 995.8 |
| 20260507044851 | 60 | 158 | 0.0 | 2.0 | 0.00 | 0.00 | 0.00 | 99 | 995.8 |
| 20260507044341 | 60 | 135 | 0.0 | 0.0 | 0.00 | 0.00 | 0.00 | 98 | 995.6 |
| 20260507043831 | 61 | 158 | 0.0 | 0.0 | 0.00 | 0.00 | 0.00 | 99 | 995.6 |
| 20260507043320 | 61 | 158 | 0.0 | 0.0 | 0.00 | 0.00 | 0.00 | 99 | 995.7 |
| 20260507041751 | 63 | 203 | 0.0 | 0.0 | 0.00 | 0.00 | 0.00 | 97 | 995.9 |
| 20260507041241 | 62 | 248 | 0.0 | 0.0 | 0.00 | 0.00 | 0.00 | 97 | 995.9 |
| 20260507040222 | 64 | 248 | 0.0 | 0.0 | 0.00 | 0.00 | 0.00 | 95 | 996.0 |
| 20260507034652 | 64 | 203 | 0.0 | 2.0 | 0.00 | 0.00 | 0.00 | 96 | 996.2 |
| 20260507034139 | 64 | 203 | 0.0 | 2.0 | 0.00 | 0.00 | 0.00 | 95 | 995.8 |
| 20260507033630 | 63 | 180 | 1.0 | 4.0 | 0.00 | 0.00 | 0.00 | 96 | 996.3 |
| 20260507033120 | 63 | 225 | 0.0 | 4.0 | 0.00 | 0.00 | 0.00 | 95 | 996.4 |
| 20260507032610 | 63 | 203 | 2.0 | 4.0 | 0.00 | 0.00 | 0.00 | 95 | 996.4 |
| 20260507032059 | 63 | 225 | 0.0 | 0.0 | 0.00 | 0.00 | 0.00 | 95 | 996.2 |
| 20260507031550 | 63 | 180 | 0.0 | 0.0 | 0.00 | 0.00 | 0.00 | 95 | 996.0 |
| 20260507030529 | 64 | 203 | 0.0 | 0.0 | 0.00 | 0.00 | 0.00 | 94 | 996.2 |
| 20260507030019 | 64 | 203 | 0.0 | 2.0 | 0.00 | 0.00 | 0.00 | 94 | 996.3 |
| 20260507025508 | 64 | 203 | 0.0 | 2.0 | 0.00 | 0.00 | 0.00 | 94 | 996.3 |
| 20260507024958 | 65 | 180 | 0.0 | 2.0 | 0.00 | 0.00 | 0.00 | 93 | 996.2 |
| 20260507024449 | 64 | 180 | 1.0 | 4.0 | 0.00 | 0.00 | 0.00 | 94 | 996.4 |
| 20260507023938 | 64 | 180 | 0.0 | 4.0 | 0.00 | 0.00 | 0.00 | 94 | 996.5 |
| 20260507023428 | 64 | 158 | 2.0 | 4.0 | 0.00 | 0.00 | 0.00 | 94 | 996.5 |
| 20260507022408 | 64 | 180 | 2.0 | 6.0 | 0.00 | 0.00 | 0.00 | 94 | 996.3 |
| 20260507021858 | 64 | 203 | 2.0 | 6.0 | 0.00 | 0.00 | 0.00 | 94 | 996.6 |
| 20260507021348 | 64 | 225 | 2.0 | 4.0 | 0.00 | 0.00 | 0.00 | 94 | 996.5 |
| 20260507020838 | 64 | 180 | 0.0 | 2.0 | 0.00 | 0.00 | 0.00 | 94 | 996.4 |
| 20260507015818 | 64 | 248 | 1.0 | 4.0 | 0.00 | 0.00 | 0.00 | 94 | 996.9 |
| 20260507015308 | 63 | 203 | 1.0 | 2.0 | 0.00 | 0.00 | 0.00 | 95 | 997.0 |
| 20260507014758 | 63 | 180 | 0.0 | 2.0 | 0.00 | 0.00 | 0.00 | 96 | 997.3 |
| 20260507014247 | 64 | 203 | 0.0 | 0.0 | 0.00 | 0.00 | 0.00 | 95 | 997.0 |
| 20260507013737 | 64 | 225 | 0.0 | 2.0 | 0.00 | 0.00 | 0.00 | 95 | 997.0 |
| 20260507012717 | 64 | 203 | 0.0 | 0.0 | 0.00 | 0.00 | 0.00 | 95 | 997.3 |
| 20260507012206 | 64 | 248 | 0.0 | 0.0 | 0.00 | 0.00 | 0.00 | 96 | 997.3 |
| 20260507011656 | 64 | 225 | 0.0 | 2.0 | 0.00 | 0.00 | 0.00 | 95 | 997.6 |
| 20260507010126 | 65 | 203 | 0.0 | 2.0 | 0.00 | 0.00 | 0.00 | 95 | 997.5 |
| 20260507005616 | 65 | 248 | 0.0 | 2.0 | 0.00 | 0.00 | 0.00 | 95 | 997.8 |
| 20260507005105 | 65 | 203 | 0.0 | 0.0 | 0.00 | 0.00 | 0.00 | 94 | 997.8 |
| 20260507004556 | 65 | 225 | 0.0 | 2.0 | 0.00 | 0.00 | 0.00 | 95 | 997.9 |
| 20260507004047 | 64 | 203 | 0.0 | 2.0 | 0.00 | 0.00 | 0.00 | 95 | 997.9 |
| 20260507003536 | 64 | 248 | 0.0 | 2.0 | 0.00 | 0.00 | 0.00 | 95 | 998.0 |
| 20260507003025 | 64 | 203 | 1.0 | 2.0 | 0.00 | 0.00 | 0.00 | 95 | 997.8 |
| 20260507002516 | 64 | 203 | 0.0 | 2.0 | 0.00 | 0.00 | 0.00 | 95 | 997.9 |
| 20260507002006 | 64 | 203 | 0.0 | 0.0 | 0.00 | 0.00 | 0.00 | 94 | 997.9 |
| 20260507001455 | 66 | 225 | 0.0 | 0.0 | 0.00 | 0.00 | 0.00 | 93 | 997.7 |
| 20260507000944 | 67 | 225 | 0.0 | 0.0 | 0.00 | 0.00 | 0.00 | 93 | 997.7 |
| 20260507000435 | 66 | 225 | 0.0 | 0.0 | 0.00 | 0.00 | 0.00 | 93 | 997.8 |
| 20260506235925 | 66 | 225 | 0.0 | 0.0 | 0.00 | 0.00 | 0.00 | 93 | 997.8 |
| 20260506235414 | 66 | 225 | 0.0 | 2.0 | 0.00 | 0.00 | 0.00 | 93 | 997.8 |
| 20260506234905 | 67 | 248 | 0.0 | 2.0 | 0.00 | 0.00 | 0.00 | 92 | 997.9 |
| 20260506233335 | 67 | 225 | 0.0 | 0.0 | 0.00 | 0.00 | 0.00 | 92 | 997.8 |
| 20260506232823 | 67 | 203 | 0.0 | 0.0 | 0.00 | 0.00 | 0.00 | 90 | 997.7 |
| 20260506231805 | 68 | 248 | 0.0 | 0.0 | 0.00 | 0.00 | 0.00 | 90 | 997.9 |
| 20260506230757 | 69 | 203 | 0.0 | 0.0 | 0.00 | 0.00 | 0.00 | 89 | 997.8 |
| 20260506230233 | 71 | 225 | 0.0 | 0.0 | 0.00 | 0.00 | 0.00 | 86 | 997.7 |
| 20260506225723 | 72 | 203 | 0.0 | 0.0 | 0.00 | 0.00 | 0.00 | 85 | 998.0 |
| 20260506225213 | 72 | 270 | 0.0 | 0.0 | 0.00 | 0.00 | 0.00 | 85 | 997.7 |
| 20260506224702 | 72 | 293 | 0.0 | 0.0 | 0.00 | 0.00 | 0.00 | 85 | 998.0 |
| 20260506224153 | 71 | 270 | 0.0 | 0.0 | 0.00 | 0.00 | 0.00 | 85 | 997.9 |
| 20260506223642 | 71 | 293 | 0.0 | 0.0 | 0.00 | 0.00 | 0.00 | 87 | 998.1 |
| 20260506223133 | 71 | 293 | 0.0 | 0.0 | 0.00 | 0.00 | 0.00 | 86 | 997.8 |
| 20260506222623 | 71 | 315 | 0.0 | 0.0 | 0.00 | 0.00 | 0.00 | 86 | 997.9 |
| 20260506222113 | 71 | 315 | 0.0 | 0.0 | 0.00 | 0.00 | 0.00 | 85 | 997.8 |
| 20260506221602 | 71 | 315 | 0.0 | 0.0 | 0.00 | 0.00 | 0.00 | 85 | 998.0 |
| 20260506220543 | 71 | 0 | 0.0 | 0.0 | 0.00 | 0.00 | 0.00 | 85 | 997.7 |
| 20260506220033 | 71 | 338 | 0.0 | 0.0 | 0.00 | 0.00 | 0.00 | 84 | 997.6 |
| 20260506215012 | 72 | 315 | 0.0 | 0.0 | 0.00 | 0.00 | 0.00 | 82 | 997.8 |
| 20260506214502 | 73 | 338 | 0.0 | 0.0 | 0.00 | 0.00 | 0.00 | 81 | 997.9 |
| 20260506213952 | 74 | 338 | 0.0 | 0.0 | 0.00 | 0.00 | 0.00 | 79 | 997.8 |
| 20260506212931 | 75 | 338 | 0.0 | 0.0 | 0.00 | 0.00 | 0.00 | 77 | 997.8 |
| 20260506211911 | 78 | 0 | 0.0 | 2.0 | 0.00 | 0.00 | 0.00 | 74 | 997.8 |
| 20260506211401 | 78 | 0 | 1.0 | 2.0 | 0.00 | 0.00 | 0.00 | 72 | 997.7 |
| 20260506210340 | 79 | 0 | 0.0 | 2.0 | 0.00 | 0.00 | 0.00 | 70 | 997.8 |
| 20260506205830 | 80 | 45 | 0.0 | 2.0 | 0.00 | 0.00 | 0.00 | 70 | 997.7 |
| 20260506205321 | 80 | 90 | 0.0 | 4.0 | 0.00 | 0.00 | 0.00 | 69 | 997.6 |
| 20260506204810 | 80 | 90 | 0.0 | 7.0 | 0.00 | 0.00 | 0.00 | 70 | 997.4 |
| 20260506204300 | 80 | 23 | 3.0 | 7.0 | 0.00 | 0.00 | 0.00 | 71 | 997.8 |
| 20260506203241 | 80 | 0 | 2.0 | 7.0 | 0.00 | 0.00 | 0.00 | 70 | 997.3 |
| 20260506202730 | 80 | 0 | 2.0 | 4.0 | 0.00 | 0.00 | 0.00 | 69 | 997.3 |
| 20260506202220 | 80 | 0 | 0.0 | 6.0 | 0.00 | 0.00 | 0.00 | 69 | 997.3 |
| 20260506201710 | 81 | 0 | 1.0 | 6.0 | 0.00 | 0.00 | 0.00 | 68 | 997.5 |
| 20260506201159 | 80 | 0 | 4.0 | 7.0 | 0.00 | 0.00 | 0.00 | 68 | 996.8 |
| 20260506200650 | 81 | 338 | 4.0 | 8.0 | 0.00 | 0.00 | 0.00 | 69 | 997.4 |
| 20260506200140 | 81 | 338 | 1.0 | 8.0 | 0.00 | 0.00 | 0.00 | 68 | 997.1 |
| 20260506195629 | 81 | 315 | 0.0 | 7.0 | 0.00 | 0.00 | 0.00 | 68 | 997.3 |
| 20260506195119 | 81 | 338 | 0.0 | 9.0 | 0.00 | 0.00 | 0.00 | 67 | 997.4 |
| 20260506194609 | 81 | 315 | 6.0 | 9.0 | 0.00 | 0.00 | 0.00 | 68 | 997.2 |
| 20260506193549 | 81 | 338 | 2.0 | 9.0 | 0.00 | 0.00 | 0.00 | 66 | 997.4 |
| 20260506193040 | 81 | 0 | 5.0 | 11.0 | 0.00 | 0.00 | 0.00 | 66 | 997.5 |
| 20260506192529 | 81 | 338 | 4.0 | 11.0 | 0.00 | 0.00 | 0.00 | 67 | 997.4 |
| 20260506192019 | 81 | 23 | 4.0 | 11.0 | 0.00 | 0.00 | 0.00 | 65 | 997.4 |
| 20260506191512 | 82 | 45 | 2.0 | 11.0 | 0.00 | 0.00 | 0.00 | 65 | 997.5 |
| 20260506190958 | 81 | 23 | 0.0 | 11.0 | 0.00 | 0.00 | 0.00 | 67 | 997.3 |
| 20260506190448 | 80 | 338 | 5.0 | 8.0 | 0.00 | 0.00 | 0.00 | 68 | 997.7 |
| 20260506185939 | 81 | 23 | 0.0 | 7.0 | 0.00 | 0.00 | 0.00 | 65 | 997.5 |
| 20260506185429 | 81 | 158 | 0.0 | 4.0 | 0.00 | 0.00 | 0.00 | 67 | 997.4 |
| 20260506184918 | 81 | 68 | 2.0 | 6.0 | 0.00 | 0.00 | 0.00 | 66 | 997.8 |
| 20260506184407 | 80 | 68 | 0.0 | 6.0 | 0.00 | 0.00 | 0.00 | 68 | 997.7 |
| 20260506183857 | 81 | 45 | 0.0 | 6.0 | 0.00 | 0.00 | 0.00 | 66 | 997.7 |
| 20260506183347 | 80 | 0 | 1.0 | 7.0 | 0.00 | 0.00 | 0.00 | 67 | 998.0 |
| 20260506182838 | 79 | 90 | 2.0 | 7.0 | 0.00 | 0.00 | 0.00 | 70 | 997.8 |
| 20260506182327 | 80 | 68 | 1.0 | 7.0 | 0.00 | 0.00 | 0.00 | 68 | 997.9 |
| 20260506180757 | 79 | 0 | 0.0 | 4.0 | 0.00 | 0.00 | 0.00 | 68 | 997.9 |
| 20260506180248 | 80 | 113 | 0.0 | 4.0 | 0.00 | 0.00 | 0.00 | 68 | 997.9 |
| 20260506175736 | 80 | 68 | 0.0 | 6.0 | 0.00 | 0.00 | 0.00 | 68 | 998.0 |
| 20260506175226 | 81 | 0 | 3.0 | 7.0 | 0.00 | 0.00 | 0.00 | 67 | 998.1 |
| 20260506174716 | 82 | 23 | 0.0 | 8.0 | 0.00 | 0.00 | 0.00 | 66 | 998.1 |
| 20260506174207 | 82 | 45 | 1.0 | 8.0 | 0.00 | 0.00 | 0.00 | 65 | 998.2 |
| 20260506173657 | 80 | 68 | 0.0 | 6.0 | 0.00 | 0.00 | 0.00 | 70 | 998.4 |
| 20260506173146 | 81 | 338 | 0.0 | 6.0 | 0.00 | 0.00 | 0.00 | 65 | 998.6 |
| 20260506172126 | 81 | 0 | 4.0 | 7.0 | 0.00 | 0.00 | 0.00 | 64 | 998.9 |
| 20260506171106 | 80 | 23 | 4.0 | 8.0 | 0.00 | 0.00 | 0.00 | 69 | 999.0 |
| 20260506170556 | 80 | 68 | 2.0 | 6.0 | 0.00 | 0.00 | 0.00 | 67 | 999.1 |
| 20260506170046 | 80 | 68 | 0.0 | 7.0 | 0.00 | 0.00 | 0.00 | 67 | 999.0 |
| 20260506165537 | 81 | 45 | 3.0 | 7.0 | 0.00 | 0.00 | 0.00 | 67 | 999.4 |
| 20260506164514 | 79 | 68 | 2.0 | 7.0 | 0.00 | 0.00 | 0.00 | 69 | 999.5 |
| 20260506164004 | 80 | 90 | 0.0 | 11.0 | 0.00 | 0.00 | 0.00 | 67 | 999.6 |
| 20260506163455 | 80 | 23 | 0.0 | 11.0 | 0.00 | 0.00 | 0.00 | 67 | 999.5 |
| 20260506162945 | 80 | 338 | 3.0 | 6.0 | 0.00 | 0.00 | 0.00 | 67 | 999.8 |
| 20260506162435 | 78 | 338 | 0.0 | 7.0 | 0.00 | 0.00 | 0.00 | 69 | 1000.0 |
| 20260506161926 | 80 | 45 | 2.0 | 7.0 | 0.00 | 0.00 | 0.00 | 69 | 999.8 |
| 20260506161414 | 79 | 45 | 1.0 | 7.0 | 0.00 | 0.00 | 0.00 | 69 | 1000.0 |
| 20260506160905 | 80 | 23 | 0.0 | 7.0 | 0.00 | 0.00 | 0.00 | 70 | 999.9 |
| 20260506160355 | 79 | 23 | 2.0 | 7.0 | 0.00 | 0.00 | 0.00 | 70 | 999.8 |
| 20260506155844 | 79 | 68 | 2.0 | 6.0 | 0.00 | 0.00 | 0.00 | 70 | 1000.0 |
| 20260506155334 | 78 | 23 | 0.0 | 8.0 | 0.00 | 0.00 | 0.00 | 70 | 1000.2 |
| 20260506153254 | 78 | 315 | 2.0 | 7.0 | 0.00 | 0.00 | 0.00 | 69 | 1000.7 |
| 20260506152743 | 78 | 90 | 0.0 | 7.0 | 0.00 | 0.00 | 0.00 | 72 | 1000.8 |
| 20260506152233 | 77 | 0 | 1.0 | 6.0 | 0.00 | 0.00 | 0.00 | 72 | 1000.9 |
| 20260506151723 | 78 | 23 | 1.0 | 6.0 | 0.00 | 0.00 | 0.00 | 72 | 1001.0 |
| 20260506151213 | 78 | 315 | 0.0 | 2.0 | 0.00 | 0.00 | 0.00 | 70 | 1001.1 |
| 20260506150703 | 78 | 0 | 0.0 | 2.0 | 0.00 | 0.00 | 0.00 | 72 | 1001.3 |
| 20260506150153 | 77 | 293 | 0.0 | 2.0 | 0.00 | 0.00 | 0.00 | 71 | 1001.5 |
| 20260506145642 | 76 | 270 | 0.0 | 4.0 | 0.00 | 0.00 | 0.00 | 73 | 1001.3 |
| 20260506144623 | 77 | 338 | 1.0 | 4.0 | 0.00 | 0.00 | 0.00 | 75 | 1001.5 |
| 20260506144112 | 76 | 90 | 0.0 | 2.0 | 0.00 | 0.00 | 0.00 | 76 | 1001.7 |
| 20260506143603 | 76 | 68 | 0.0 | 4.0 | 0.00 | 0.00 | 0.00 | 76 | 1001.6 |
| 20260506143052 | 77 | 90 | 0.0 | 4.0 | 0.00 | 0.00 | 0.00 | 76 | 1001.8 |
| 20260506142542 | 76 | 338 | 0.0 | 2.0 | 0.00 | 0.00 | 0.00 | 79 | 1001.9 |
| 20260506142031 | 76 | 68 | 0.0 | 2.0 | 0.00 | 0.00 | 0.00 | 77 | 1001.9 |
| 20260506141523 | 75 | 23 | 0.0 | 2.0 | 0.00 | 0.00 | 0.00 | 79 | 1001.8 |
| 20260506141012 | 75 | 0 | 0.0 | 0.0 | 0.00 | 0.00 | 0.00 | 78 | 1001.9 |
| 20260506140501 | 75 | 113 | 0.0 | 6.0 | 0.00 | 0.00 | 0.00 | 78 | 1002.1 |
| 20260506135952 | 73 | 90 | 0.0 | 6.0 | 0.00 | 0.00 | 0.00 | 81 | 1001.9 |
| 20260506135442 | 74 | 45 | 0.0 | 4.0 | 0.00 | 0.00 | 0.00 | 82 | 1002.1 |
| 20260506134932 | 74 | 293 | 0.0 | 0.0 | 0.00 | 0.00 | 0.00 | 79 | 1001.8 |